createdAt,value
2023-06-30T05:00:50.594Z,999.06
2023-06-30T05:01:50.596Z,999.01
2023-06-30T05:02:50.546Z,999.03
2023-06-30T05:03:50.593Z,998.96
2023-06-30T05:04:50.493Z,998.97
2023-06-30T05:05:50.474Z,998.95
2023-06-30T05:06:50.483Z,998.95
2023-06-30T05:07:50.462Z,998.95
2023-06-30T05:08:50.449Z,998.89
2023-06-30T05:09:50.456Z,998.86
2023-06-30T05:10:50.459Z,998.89
2023-06-30T05:11:55.442Z,998.83
2023-06-30T05:12:50.399Z,998.82
2023-06-30T05:13:50.389Z,998.83
2023-06-30T05:14:50.382Z,998.85
2023-06-30T05:15:50.740Z,998.86
2023-06-30T05:16:50.505Z,998.86
2023-06-30T05:17:50.391Z,998.90
2023-06-30T05:18:50.331Z,998.92
2023-06-30T05:19:50.319Z,998.91
2023-06-30T05:20:50.345Z,998.91
2023-06-30T05:21:50.315Z,998.91
2023-06-30T05:22:55.319Z,998.93
2023-06-30T05:23:50.275Z,998.96
2023-06-30T05:24:50.289Z,998.96
2023-06-30T05:25:50.263Z,998.96
2023-06-30T05:26:50.273Z,999.00
2023-06-30T05:27:50.282Z,998.99
2023-06-30T05:29:03.475Z,999.00
2023-06-30T05:29:51.218Z,998.93
2023-06-30T05:30:50.212Z,998.93
2023-06-30T05:31:50.229Z,998.95
2023-06-30T05:32:50.252Z,998.97
2023-06-30T05:33:55.260Z,998.95
2023-06-30T05:34:50.161Z,998.97
2023-06-30T05:35:50.144Z,998.99
2023-06-30T05:36:50.130Z,999.05
2023-06-30T05:37:50.121Z,999.05
2023-06-30T05:38:50.105Z,999.06
2023-06-30T05:39:50.128Z,999.08
2023-06-30T05:40:50.080Z,999.08
2023-06-30T05:41:50.076Z,999.14
2023-06-30T05:42:50.080Z,999.15
2023-06-30T05:43:50.058Z,999.09
2023-06-30T05:44:55.076Z,999.06
2023-06-30T05:45:50.035Z,999.02
2023-06-30T05:46:50.077Z,999.03
2023-06-30T05:47:50.034Z,999.05
2023-06-30T05:48:50.032Z,999.03
2023-06-30T05:49:49.996Z,999.10
2023-06-30T05:50:49.974Z,999.11
2023-06-30T05:51:49.974Z,999.10
2023-06-30T05:52:49.998Z,999.13
2023-06-30T05:53:49.985Z,999.17
2023-06-30T05:54:49.931Z,999.13
2023-06-30T05:55:54.940Z,999.17
2023-06-30T05:56:49.915Z,999.19
2023-06-30T05:57:49.904Z,999.12
2023-06-30T05:58:49.896Z,999.21
2023-06-30T05:59:49.894Z,999.27
2023-06-30T06:00:49.866Z,999.18
2023-06-30T06:01:51.059Z,999.25
2023-06-30T06:02:49.939Z,999.25
2023-06-30T06:03:50.014Z,999.23
2023-06-30T06:04:49.987Z,999.25
2023-06-30T06:05:50.302Z,999.21
2023-06-30T06:06:54.865Z,999.24
2023-06-30T06:07:49.782Z,999.25
2023-06-30T06:08:49.796Z,999.33
2023-06-30T06:09:49.772Z,999.25
2023-06-30T06:10:49.761Z,999.32
2023-06-30T06:11:49.753Z,999.34
2023-06-30T06:12:49.774Z,999.41
2023-06-30T06:13:49.728Z,999.36
2023-06-30T06:14:49.709Z,999.46
2023-06-30T06:15:49.712Z,999.49
2023-06-30T06:16:49.753Z,999.49
2023-06-30T06:17:54.765Z,999.54
2023-06-30T06:18:49.664Z,999.49
2023-06-30T06:19:49.650Z,999.46
2023-06-30T06:20:49.660Z,999.51
2023-06-30T06:21:49.635Z,999.44
2023-06-30T06:22:49.629Z,999.52
2023-06-30T06:23:49.622Z,999.48
2023-06-30T06:24:49.608Z,999.50
2023-06-30T06:25:49.926Z,999.51
2023-06-30T06:26:49.581Z,999.43
2023-06-30T06:27:49.573Z,999.57
2023-06-30T06:28:54.571Z,999.58
2023-06-30T06:29:49.540Z,999.47
2023-06-30T06:30:49.586Z,999.53
2023-06-30T06:31:49.531Z,999.50
2023-06-30T06:32:49.555Z,999.53
2023-06-30T06:33:49.511Z,999.63
2023-06-30T06:34:49.497Z,999.65
2023-06-30T06:35:49.476Z,999.61
2023-06-30T06:36:49.498Z,999.65
2023-06-30T06:37:49.455Z,999.61
2023-06-30T06:38:49.454Z,999.70
2023-06-30T06:39:54.457Z,999.62
2023-06-30T06:40:49.420Z,999.63
2023-06-30T06:41:49.424Z,999.65
2023-06-30T06:42:49.410Z,999.67
2023-06-30T06:43:49.387Z,999.68
2023-06-30T06:44:49.372Z,999.70
2023-06-30T06:45:49.362Z,999.71
2023-06-30T06:46:49.391Z,999.74
2023-06-30T06:47:49.351Z,999.72
2023-06-30T06:48:49.364Z,999.78
2023-06-30T06:49:49.318Z,999.81
2023-06-30T06:50:54.361Z,999.76
2023-06-30T06:51:49.310Z,999.75
2023-06-30T06:52:49.318Z,999.84
2023-06-30T06:53:49.282Z,999.89
2023-06-30T06:54:49.279Z,999.89
2023-06-30T06:55:49.263Z,999.79
2023-06-30T06:56:49.252Z,999.82
2023-06-30T06:57:49.232Z,999.82
2023-06-30T06:58:49.216Z,999.83
2023-06-30T06:59:49.206Z,999.84
2023-06-30T07:00:49.276Z,999.81
2023-06-30T07:01:54.262Z,999.72
2023-06-30T07:02:49.209Z,999.79
2023-06-30T07:03:49.256Z,999.78
2023-06-30T07:04:49.159Z,999.76
2023-06-30T07:05:49.285Z,999.78
2023-06-30T07:06:49.139Z,999.82
2023-06-30T07:07:49.383Z,999.79
2023-06-30T07:08:49.129Z,999.83
2023-06-30T07:09:49.111Z,999.84
2023-06-30T07:10:49.168Z,999.83
2023-06-30T07:11:49.108Z,999.82
2023-06-30T07:12:54.097Z,999.85
2023-06-30T07:13:49.076Z,999.87
2023-06-30T07:14:50.230Z,999.76
2023-06-30T07:15:49.099Z,999.77
2023-06-30T07:16:49.165Z,999.80
2023-06-30T07:17:49.221Z,999.79
2023-06-30T07:18:49.047Z,999.79
2023-06-30T07:19:49.002Z,999.81
2023-06-30T07:20:49.070Z,999.80
2023-06-30T07:21:48.965Z,999.79
2023-06-30T07:22:48.995Z,999.76
2023-06-30T07:23:53.980Z,999.81
2023-06-30T07:24:48.958Z,999.76
2023-06-30T07:25:49.185Z,999.85
2023-06-30T07:26:48.922Z,999.89
2023-06-30T07:27:48.907Z,999.85
2023-06-30T07:28:48.897Z,999.89
2023-06-30T07:29:48.903Z,999.84
2023-06-30T07:30:49.025Z,999.86
2023-06-30T07:31:48.885Z,999.87
2023-06-30T07:32:48.936Z,999.88
2023-06-30T07:33:48.839Z,999.85
2023-06-30T07:34:53.836Z,999.95
2023-06-30T07:35:49.298Z,999.88
2023-06-30T07:36:48.802Z,999.91
2023-06-30T07:37:48.784Z,999.93
2023-06-30T07:38:48.793Z,999.99
2023-06-30T07:39:48.889Z,1000.01
2023-06-30T07:41:48.775Z,999.91
2023-06-30T07:42:48.767Z,999.94
2023-06-30T07:43:48.736Z,999.91
2023-06-30T07:44:48.710Z,999.94
2023-06-30T07:45:53.759Z,999.96
2023-06-30T07:46:48.680Z,999.91
2023-06-30T07:47:49.019Z,999.93
2023-06-30T07:48:48.759Z,999.96
2023-06-30T07:49:48.651Z,999.85
2023-06-30T07:51:03.414Z,999.89
2023-06-30T07:51:48.628Z,999.84
2023-06-30T07:52:48.626Z,999.93
2023-06-30T07:53:48.605Z,999.94
2023-06-30T07:54:48.602Z,999.95
2023-06-30T07:55:48.650Z,999.95
2023-06-30T07:56:53.627Z,999.93
2023-06-30T07:57:48.624Z,999.91
2023-06-30T07:58:48.551Z,999.92
2023-06-30T07:59:48.543Z,999.97
2023-06-30T08:00:48.525Z,999.89
2023-06-30T08:01:48.540Z,999.92
2023-06-30T08:02:48.803Z,999.95
2023-06-30T08:03:48.576Z,999.91
2023-06-30T08:04:48.647Z,999.96
2023-06-30T08:05:49.081Z,999.96
2023-06-30T08:06:48.460Z,999.91
2023-06-30T08:07:53.571Z,999.93
2023-06-30T08:08:48.441Z,999.92
2023-06-30T08:09:48.437Z,1000.00
2023-06-30T08:10:48.443Z,999.98
2023-06-30T08:11:48.439Z,999.98
2023-06-30T08:12:48.406Z,1000.02
2023-06-30T08:13:48.408Z,999.98
2023-06-30T08:14:48.372Z,1000.00
2023-06-30T08:15:49.515Z,1000.09
2023-06-30T08:16:48.469Z,1000.01
2023-06-30T08:17:55.024Z,1000.08
2023-06-30T08:18:54.418Z,1000.03
2023-06-30T08:19:49.869Z,1000.04
2023-06-30T08:20:48.305Z,1000.12
2023-06-30T08:21:48.312Z,1000.07
2023-06-30T08:22:48.288Z,1000.13
2023-06-30T08:23:48.272Z,1000.18
2023-06-30T08:24:48.262Z,1000.12
2023-06-30T08:25:48.278Z,1000.18
2023-06-30T08:26:48.250Z,1000.17
2023-06-30T08:27:48.269Z,1000.19
2023-06-30T08:28:48.214Z,1000.21
2023-06-30T08:29:53.244Z,1000.21
2023-06-30T08:30:48.254Z,1000.20
2023-06-30T08:31:48.220Z,1000.24
2023-06-30T08:32:48.216Z,1000.28
2023-06-30T08:33:48.166Z,1000.24
2023-06-30T08:34:48.151Z,1000.25
2023-06-30T08:35:48.177Z,1000.39
2023-06-30T08:36:48.128Z,1000.28
2023-06-30T08:37:50.917Z,1000.28
2023-06-30T08:38:48.127Z,1000.31
2023-06-30T08:39:48.100Z,1000.27
2023-06-30T08:40:53.116Z,1000.31
2023-06-30T08:41:48.075Z,1000.33
2023-06-30T08:42:48.059Z,1000.37
2023-06-30T08:43:48.073Z,1000.33
2023-06-30T08:44:48.067Z,1000.37
2023-06-30T08:45:48.280Z,1000.35
2023-06-30T08:46:48.080Z,1000.37
2023-06-30T08:47:48.068Z,1000.37
2023-06-30T08:48:48.044Z,1000.39
2023-06-30T08:49:48.005Z,1000.42
2023-06-30T08:50:48.036Z,1000.47
2023-06-30T08:51:52.990Z,1000.47
2023-06-30T08:52:47.992Z,1000.51
2023-06-30T08:53:47.956Z,1000.57
2023-06-30T08:54:47.944Z,1000.52
2023-06-30T08:55:48.281Z,1000.53
2023-06-30T08:56:47.920Z,1000.53
2023-06-30T08:57:47.908Z,1000.48
2023-06-30T08:58:47.900Z,1000.55
2023-06-30T08:59:47.988Z,1000.56
2023-06-30T09:00:47.890Z,1000.52
2023-06-30T09:01:47.882Z,1000.55
2023-06-30T09:02:52.965Z,1000.49
2023-06-30T09:03:47.910Z,1000.53
2023-06-30T09:04:47.859Z,1000.52
2023-06-30T09:05:47.998Z,1000.46
2023-06-30T09:06:47.801Z,1000.47
2023-06-30T09:07:47.918Z,1000.45
2023-06-30T09:08:47.810Z,1000.47
2023-06-30T09:09:47.810Z,1000.53
2023-06-30T09:10:47.756Z,1000.50
2023-06-30T09:11:47.757Z,1000.49
2023-06-30T09:12:47.758Z,1000.45
2023-06-30T09:13:52.757Z,1000.50
2023-06-30T09:14:49.498Z,1000.51
2023-06-30T09:15:48.109Z,1000.38
2023-06-30T09:16:47.726Z,1000.46
2023-06-30T09:17:47.800Z,1000.52
2023-06-30T09:18:47.681Z,1000.47
2023-06-30T09:19:47.668Z,1000.39
2023-06-30T09:20:47.645Z,1000.45
2023-06-30T09:21:47.660Z,1000.43
2023-06-30T09:22:53.032Z,1000.61
2023-06-30T09:23:47.624Z,1000.67
2023-06-30T09:24:52.632Z,1000.60
2023-06-30T09:25:47.899Z,1000.69
2023-06-30T09:26:47.580Z,1000.69
2023-06-30T09:27:47.587Z,1000.71
2023-06-30T09:28:47.572Z,1000.71
2023-06-30T09:29:47.561Z,1000.70
2023-06-30T09:30:47.787Z,1000.70
2023-06-30T09:31:47.556Z,1000.70
2023-06-30T09:32:47.562Z,1000.73
2023-06-30T09:33:47.514Z,1000.74
2023-06-30T09:34:47.487Z,1000.69
2023-06-30T09:35:52.501Z,1000.66
2023-06-30T09:36:47.473Z,1000.68
2023-06-30T09:37:47.475Z,1000.63
2023-06-30T09:38:47.446Z,1000.65
2023-06-30T09:39:47.459Z,1000.64
2023-06-30T09:40:47.426Z,1000.63
2023-06-30T09:41:47.431Z,1000.65
2023-06-30T09:42:48.330Z,1000.66
2023-06-30T09:43:47.394Z,1000.64
2023-06-30T09:44:47.374Z,1000.67
2023-06-30T09:45:47.974Z,1000.56
2023-06-30T09:46:52.462Z,1000.52
2023-06-30T09:47:47.381Z,1000.48
2023-06-30T09:48:47.334Z,1000.54
2023-06-30T09:49:47.424Z,1000.42
2023-06-30T09:50:47.311Z,1000.47
2023-06-30T09:51:47.309Z,1000.43
2023-06-30T09:52:47.292Z,1000.51
2023-06-30T09:53:47.291Z,1000.42
2023-06-30T09:54:47.263Z,1000.43
2023-06-30T09:55:47.437Z,1000.44
2023-06-30T09:56:47.257Z,1000.43
2023-06-30T09:57:52.255Z,1000.39
2023-06-30T09:58:48.108Z,1000.41
2023-06-30T09:59:47.221Z,1000.46
2023-06-30T10:00:47.200Z,1000.43
2023-06-30T10:01:47.228Z,1000.40
2023-06-30T10:02:47.290Z,1000.39
2023-06-30T10:03:47.194Z,1000.37
2023-06-30T10:04:47.158Z,1000.43
2023-06-30T10:05:47.502Z,1000.47
2023-06-30T10:06:47.137Z,1000.46
2023-06-30T10:07:47.123Z,1000.45
2023-06-30T10:08:52.129Z,1000.47
2023-06-30T10:09:47.107Z,1000.49
2023-06-30T10:10:47.132Z,1000.54
2023-06-30T10:11:47.097Z,1000.53
2023-06-30T10:12:47.077Z,1000.52
2023-06-30T10:13:47.052Z,1000.57
2023-06-30T10:14:47.041Z,1000.56
2023-06-30T10:15:47.461Z,1000.55
2023-06-30T10:16:47.021Z,1000.56
2023-06-30T10:17:47.134Z,1000.59
2023-06-30T10:18:47.077Z,1000.56
2023-06-30T10:19:52.027Z,1000.62
2023-06-30T10:21:47.975Z,1000.66
2023-06-30T10:22:46.961Z,1000.58
2023-06-30T10:23:46.950Z,1000.66
2023-06-30T10:24:46.949Z,1000.63
2023-06-30T10:25:47.297Z,1000.65
2023-06-30T10:26:46.913Z,1000.67
2023-06-30T10:27:46.895Z,1000.65
2023-06-30T10:28:46.930Z,1000.63
2023-06-30T10:29:46.889Z,1000.68
2023-06-30T10:30:51.932Z,1000.70
2023-06-30T10:31:46.888Z,1000.67
2023-06-30T10:32:46.950Z,1000.67
2023-06-30T10:33:46.867Z,1000.68
2023-06-30T10:34:46.857Z,1000.62
2023-06-30T10:35:47.134Z,1000.68
2023-06-30T10:36:46.818Z,1000.65
2023-06-30T10:37:46.791Z,1000.63
2023-06-30T10:38:46.812Z,1000.61
2023-06-30T10:39:46.781Z,1000.72
2023-06-30T10:40:46.772Z,1000.71
2023-06-30T10:41:51.777Z,1000.71
2023-06-30T10:42:46.794Z,1000.63
2023-06-30T10:43:46.760Z,1000.73
2023-06-30T10:44:46.722Z,1000.76
2023-06-30T10:45:46.819Z,1000.73
2023-06-30T10:46:46.718Z,1000.75
2023-06-30T10:47:46.703Z,1000.72
2023-06-30T10:48:46.679Z,1000.77
2023-06-30T10:49:46.696Z,1000.71
2023-06-30T10:50:46.678Z,1000.77
2023-06-30T10:51:46.636Z,1000.79
2023-06-30T10:52:51.671Z,1000.73
2023-06-30T10:53:46.630Z,1000.77
2023-06-30T10:54:46.639Z,1000.80
2023-06-30T10:55:47.056Z,1000.69
2023-06-30T10:56:46.640Z,1000.79
2023-06-30T10:57:46.577Z,1000.73
2023-06-30T10:58:46.583Z,1000.70
2023-06-30T10:59:46.557Z,1000.71
2023-06-30T11:00:46.548Z,1000.61
2023-06-30T11:01:46.540Z,1000.62
2023-06-30T11:02:46.670Z,1000.65
2023-06-30T11:03:51.713Z,1000.64
2023-06-30T11:04:46.633Z,1000.69
2023-06-30T11:05:46.659Z,1000.71
2023-06-30T11:06:46.516Z,1000.64
2023-06-30T11:07:46.497Z,1000.63
2023-06-30T11:08:46.451Z,1000.62
2023-06-30T11:09:46.531Z,1000.50
2023-06-30T11:10:46.432Z,1000.57
2023-06-30T11:11:46.424Z,1000.53
2023-06-30T11:12:46.420Z,1000.56
2023-06-30T11:13:46.439Z,1000.60
2023-06-30T11:14:51.402Z,1000.48
2023-06-30T11:15:47.294Z,1000.45
2023-06-30T11:16:46.386Z,1000.44
2023-06-30T11:17:46.421Z,1000.45
2023-06-30T11:18:46.472Z,1000.44
2023-06-30T11:19:46.360Z,1000.38
2023-06-30T11:20:46.324Z,1000.48
2023-06-30T11:21:46.323Z,1000.49
2023-06-30T11:22:46.431Z,1000.48
2023-06-30T11:23:46.284Z,1000.52
2023-06-30T11:24:46.268Z,1000.50
2023-06-30T11:25:51.289Z,1000.52
2023-06-30T11:26:46.258Z,1000.52
2023-06-30T11:27:46.267Z,1000.55
2023-06-30T11:28:46.243Z,1000.55
2023-06-30T11:29:46.322Z,1000.52
2023-06-30T11:30:46.253Z,1000.46
2023-06-30T11:31:46.201Z,1000.50
2023-06-30T11:32:46.215Z,1000.50
2023-06-30T11:33:46.170Z,1000.53
2023-06-30T11:34:46.166Z,1000.45
2023-06-30T11:35:46.393Z,1000.38
2023-06-30T11:36:51.206Z,1000.34
2023-06-30T11:37:46.121Z,1000.40
2023-06-30T11:38:46.151Z,1000.51
2023-06-30T11:39:46.101Z,1000.47
2023-06-30T11:40:46.108Z,1000.48
2023-06-30T11:41:46.090Z,1000.49
2023-06-30T11:42:46.067Z,1000.56
2023-06-30T11:43:46.056Z,1000.47
2023-06-30T11:44:46.127Z,1000.52
2023-06-30T11:45:46.244Z,1000.59
2023-06-30T11:46:46.068Z,1000.56
2023-06-30T11:47:51.091Z,1000.46
2023-06-30T11:48:46.041Z,1000.58
2023-06-30T11:49:46.006Z,1000.55
2023-06-30T11:50:46.177Z,1000.54
2023-06-30T11:51:45.991Z,1000.54
2023-06-30T11:52:45.961Z,1000.56
2023-06-30T11:53:45.955Z,1000.55
2023-06-30T11:54:45.973Z,1000.61
2023-06-30T11:55:46.189Z,1000.58
2023-06-30T11:56:45.969Z,1000.61
2023-06-30T11:57:45.938Z,1000.55
2023-06-30T11:58:50.945Z,1000.60
2023-06-30T11:59:45.911Z,1000.78
2023-06-30T12:00:46.187Z,1000.80
2023-06-30T12:01:45.860Z,1000.61
2023-06-30T12:02:47.305Z,1000.61
2023-06-30T12:03:45.929Z,1000.67
2023-06-30T12:04:45.894Z,1000.73
2023-06-30T12:05:46.065Z,1000.80
2023-06-30T12:06:45.807Z,1000.66
2023-06-30T12:07:45.822Z,1000.71
2023-06-30T12:08:45.797Z,1000.71
2023-06-30T12:09:50.811Z,1000.74
2023-06-30T12:10:45.971Z,1000.79
2023-06-30T12:11:45.760Z,1000.96
2023-06-30T12:12:45.753Z,1000.86
2023-06-30T12:13:45.740Z,1000.65
2023-06-30T12:14:45.716Z,1000.75
2023-06-30T12:15:45.998Z,1000.74
2023-06-30T12:16:46.538Z,1000.70
2023-06-30T12:17:45.837Z,1000.79
2023-06-30T12:18:45.689Z,1000.68
2023-06-30T12:19:45.678Z,1000.71
2023-06-30T12:20:50.676Z,1000.68
2023-06-30T12:21:45.664Z,1000.55
2023-06-30T12:22:45.669Z,1000.54
2023-06-30T12:23:45.688Z,1000.73
2023-06-30T12:24:45.608Z,1000.53
2023-06-30T12:25:45.911Z,1000.67
2023-06-30T12:26:45.587Z,1000.53
2023-06-30T12:27:45.597Z,1000.52
2023-06-30T12:28:45.566Z,1000.52
2023-06-30T12:29:45.574Z,1000.41
2023-06-30T12:30:45.957Z,1000.39
2023-06-30T12:31:45.563Z,1000.47
2023-06-30T12:32:45.578Z,1000.50
2023-06-30T12:33:50.528Z,1000.44
2023-06-30T12:34:45.602Z,1000.45
2023-06-30T12:35:45.775Z,1000.47
2023-06-30T12:36:45.486Z,1000.49
2023-06-30T12:37:45.482Z,1000.42
2023-06-30T12:38:45.465Z,1000.37
2023-06-30T12:39:45.465Z,1000.44
2023-06-30T12:40:45.800Z,1000.41
2023-06-30T12:41:45.467Z,1000.41
2023-06-30T12:42:45.412Z,1000.37
2023-06-30T12:43:45.459Z,1000.34
2023-06-30T12:44:45.389Z,1000.42
2023-06-30T12:45:45.378Z,1000.32
2023-06-30T12:46:50.403Z,1000.35
2023-06-30T12:47:45.433Z,1000.34
2023-06-30T12:48:45.394Z,1000.35
2023-06-30T12:49:45.337Z,1000.38
2023-06-30T12:50:45.578Z,1000.28
2023-06-30T12:51:45.323Z,1000.38
2023-06-30T12:52:45.303Z,1000.38
2023-06-30T12:53:45.310Z,1000.29
2023-06-30T12:54:45.302Z,1000.26
2023-06-30T12:55:45.276Z,1000.29
2023-06-30T12:56:45.270Z,1000.38
2023-06-30T12:57:45.274Z,1000.41
2023-06-30T12:58:45.242Z,1000.42
2023-06-30T12:59:50.263Z,1000.33
2023-06-30T13:00:45.723Z,1000.38
2023-06-30T13:01:45.298Z,1000.37
2023-06-30T13:02:45.255Z,1000.30
2023-06-30T13:03:45.259Z,1000.34
2023-06-30T13:04:45.185Z,1000.25
2023-06-30T13:05:45.166Z,1000.28
2023-06-30T13:06:45.165Z,1000.22
2023-06-30T13:07:45.169Z,1000.33
2023-06-30T13:08:45.126Z,1000.34
2023-06-30T13:09:45.129Z,1000.37
2023-06-30T13:10:45.517Z,1000.28
2023-06-30T13:11:45.102Z,1000.40
2023-06-30T13:12:50.152Z,1000.40
2023-06-30T13:13:45.067Z,1000.36
2023-06-30T13:14:45.069Z,1000.35
2023-06-30T13:15:45.474Z,1000.40
2023-06-30T13:16:45.076Z,1000.39
2023-06-30T13:17:45.070Z,1000.34
2023-06-30T13:18:45.027Z,1000.32
2023-06-30T13:19:45.012Z,1000.33
2023-06-30T13:20:45.015Z,1000.32
2023-06-30T13:21:44.981Z,1000.26
2023-06-30T13:22:56.922Z,1000.26
2023-06-30T13:23:50.019Z,1000.26
2023-06-30T13:24:45.075Z,1000.20
2023-06-30T13:25:45.408Z,1000.30
2023-06-30T13:26:44.927Z,1000.26
2023-06-30T13:27:44.913Z,1000.23
2023-06-30T13:28:44.928Z,1000.30
2023-06-30T13:29:44.903Z,1000.24
2023-06-30T13:30:45.158Z,1000.21
2023-06-30T13:31:44.921Z,1000.25
2023-06-30T13:32:44.922Z,1000.23
2023-06-30T13:33:44.858Z,1000.23
2023-06-30T13:34:49.883Z,1000.19
2023-06-30T13:35:45.074Z,1000.21
2023-06-30T13:36:44.860Z,1000.24
2023-06-30T13:37:44.817Z,1000.23
2023-06-30T13:38:44.827Z,1000.15
2023-06-30T13:39:44.825Z,1000.16
2023-06-30T13:40:45.033Z,1000.16
2023-06-30T13:41:44.761Z,1000.19
2023-06-30T13:42:44.807Z,1000.16
2023-06-30T13:43:44.754Z,1000.12
2023-06-30T13:44:44.747Z,1000.15
2023-06-30T13:45:49.795Z,1000.13
2023-06-30T13:46:44.727Z,1000.10
2023-06-30T13:47:44.740Z,1000.18
2023-06-30T13:48:44.705Z,1000.10
2023-06-30T13:49:44.724Z,1000.13
2023-06-30T13:50:44.706Z,1000.06
2023-06-30T13:51:44.658Z,1000.05
2023-06-30T13:52:44.647Z,1000.02
2023-06-30T13:53:44.653Z,1000.01
2023-06-30T13:54:44.622Z,1000.03
2023-06-30T13:55:44.993Z,1000.03
2023-06-30T13:56:49.627Z,1000.01
2023-06-30T13:57:44.597Z,999.97
2023-06-30T13:58:44.571Z,1000.02
2023-06-30T13:59:44.565Z,999.92
2023-06-30T14:00:44.794Z,1000.04
2023-06-30T14:01:44.581Z,1000.01
2023-06-30T14:02:44.562Z,999.94
2023-06-30T14:03:44.546Z,999.86
2023-06-30T14:04:44.655Z,999.83
2023-06-30T14:05:44.804Z,999.88
2023-06-30T14:06:44.491Z,999.88
2023-06-30T14:07:49.536Z,999.76
2023-06-30T14:08:44.461Z,999.77
2023-06-30T14:09:44.454Z,999.82
2023-06-30T14:10:44.695Z,999.73
2023-06-30T14:11:44.442Z,999.77
2023-06-30T14:12:44.418Z,999.75
2023-06-30T14:13:44.435Z,999.72
2023-06-30T14:14:45.227Z,999.63
2023-06-30T14:15:44.688Z,999.66
2023-06-30T14:16:44.448Z,999.58
2023-06-30T14:17:44.467Z,999.75
2023-06-30T14:18:49.388Z,999.64
2023-06-30T14:19:44.350Z,999.62
2023-06-30T14:20:44.604Z,999.62
2023-06-30T14:21:44.354Z,999.68
2023-06-30T14:22:44.309Z,999.57
2023-06-30T14:23:44.300Z,999.63
2023-06-30T14:24:44.318Z,999.59
2023-06-30T14:25:44.764Z,999.54
2023-06-30T14:26:44.295Z,999.61
2023-06-30T14:27:44.267Z,999.56
2023-06-30T14:28:44.250Z,999.59
2023-06-30T14:29:49.321Z,999.67
2023-06-30T14:30:44.306Z,999.69
2023-06-30T14:31:44.212Z,999.66
2023-06-30T14:32:44.332Z,999.59
2023-06-30T14:33:44.188Z,999.60
2023-06-30T14:34:44.193Z,999.48
2023-06-30T14:35:44.437Z,999.47
2023-06-30T14:36:44.171Z,999.55
2023-06-30T14:37:44.152Z,999.56
2023-06-30T14:38:44.150Z,999.58
2023-06-30T14:39:44.134Z,999.46
2023-06-30T14:40:49.131Z,999.43
2023-06-30T14:41:53.642Z,999.44
2023-06-30T14:42:44.092Z,999.53
2023-06-30T14:43:44.088Z,999.56
2023-06-30T14:44:44.104Z,999.54
2023-06-30T14:45:44.425Z,999.49
2023-06-30T14:46:44.077Z,999.56
2023-06-30T14:47:44.085Z,999.53
2023-06-30T14:48:44.058Z,999.50
2023-06-30T14:49:44.038Z,999.47
2023-06-30T14:50:44.013Z,999.45
2023-06-30T14:51:49.024Z,999.56
2023-06-30T14:52:43.981Z,999.55
2023-06-30T14:53:43.981Z,999.50
2023-06-30T14:54:43.961Z,999.43
2023-06-30T14:55:44.162Z,999.46
2023-06-30T14:56:43.937Z,999.45
2023-06-30T14:57:43.952Z,999.52
2023-06-30T14:58:43.928Z,999.47
2023-06-30T14:59:43.912Z,999.48
2023-06-30T15:00:43.891Z,999.40
2023-06-30T15:01:43.928Z,999.31
2023-06-30T15:02:49.100Z,999.39
2023-06-30T15:03:43.958Z,999.28
2023-06-30T15:04:43.926Z,999.29
2023-06-30T15:05:44.033Z,999.22
2023-06-30T15:06:43.827Z,999.28
2023-06-30T15:07:46.147Z,999.18
2023-06-30T15:08:43.805Z,999.14
2023-06-30T15:09:43.793Z,999.15
2023-06-30T15:10:43.789Z,999.06
2023-06-30T15:11:43.814Z,999.23
2023-06-30T15:12:43.782Z,999.16
2023-06-30T15:13:48.788Z,999.11
2023-06-30T15:14:43.745Z,999.15
2023-06-30T15:15:43.974Z,999.12
2023-06-30T15:16:43.750Z,999.14
2023-06-30T15:17:43.788Z,999.20
2023-06-30T15:18:43.691Z,999.23
2023-06-30T15:19:45.726Z,999.22
2023-06-30T15:20:43.709Z,999.08
2023-06-30T15:21:43.691Z,999.21
2023-06-30T15:22:43.655Z,999.12
2023-06-30T15:23:43.669Z,999.06
2023-06-30T15:24:48.662Z,999.08
2023-06-30T15:25:43.868Z,999.08
2023-06-30T15:26:43.615Z,999.07
2023-06-30T15:27:43.631Z,999.07
2023-06-30T15:28:43.588Z,999.13
2023-06-30T15:29:43.614Z,999.14
2023-06-30T15:30:43.819Z,999.09
2023-06-30T15:31:43.581Z,999.12
2023-06-30T15:32:43.603Z,999.10
2023-06-30T15:33:43.652Z,999.06
2023-06-30T15:34:43.518Z,999.05
2023-06-30T15:35:48.704Z,999.09
2023-06-30T15:36:43.495Z,999.01
2023-06-30T15:37:43.494Z,999.00
2023-06-30T15:38:43.474Z,998.97
2023-06-30T15:39:43.470Z,998.98
2023-06-30T15:40:43.463Z,998.94
2023-06-30T15:41:43.456Z,998.91
2023-06-30T15:42:43.429Z,999.00
2023-06-30T15:43:43.418Z,998.99
2023-06-30T15:44:43.405Z,998.98
2023-06-30T15:45:43.417Z,999.01
2023-06-30T15:46:48.533Z,998.96
2023-06-30T15:47:43.405Z,998.97
2023-06-30T15:48:43.381Z,998.90
2023-06-30T15:49:43.373Z,998.85
2023-06-30T15:50:43.370Z,998.85
2023-06-30T15:51:43.353Z,998.80
2023-06-30T15:52:43.361Z,998.82
2023-06-30T15:53:43.331Z,998.84
2023-06-30T15:54:43.321Z,998.81
2023-06-30T15:55:43.532Z,998.83
2023-06-30T15:56:43.273Z,998.86
2023-06-30T15:57:48.291Z,998.82
2023-06-30T15:58:43.282Z,998.82
2023-06-30T15:59:43.280Z,998.80
2023-06-30T16:00:43.273Z,998.81
2023-06-30T16:01:43.238Z,998.87
2023-06-30T16:02:43.390Z,998.84
2023-06-30T16:03:43.409Z,998.77
2023-06-30T16:04:43.272Z,998.84
2023-06-30T16:05:43.268Z,998.90
2023-06-30T16:06:43.187Z,998.85
2023-06-30T16:07:43.179Z,998.91
2023-06-30T16:08:48.188Z,998.89
2023-06-30T16:09:43.140Z,998.94
2023-06-30T16:10:43.123Z,998.84
2023-06-30T16:11:43.135Z,998.88
2023-06-30T16:12:43.134Z,998.89
2023-06-30T16:13:43.127Z,998.82
2023-06-30T16:14:43.082Z,998.90
2023-06-30T16:15:43.087Z,998.88
2023-06-30T16:16:43.081Z,998.93
2023-06-30T16:17:43.080Z,998.87
2023-06-30T16:18:43.131Z,998.82
2023-06-30T16:19:48.049Z,998.88
2023-06-30T16:20:43.015Z,998.81
2023-06-30T16:21:43.014Z,998.87
2023-06-30T16:22:43.000Z,998.73
2023-06-30T16:23:43.005Z,998.81
2023-06-30T16:24:45.647Z,998.76
2023-06-30T16:25:42.961Z,998.68
2023-06-30T16:26:42.947Z,998.74
2023-06-30T16:27:42.951Z,998.70
2023-06-30T16:28:42.955Z,998.76
2023-06-30T16:29:42.948Z,998.77
2023-06-30T16:30:47.942Z,998.71
2023-06-30T16:31:42.915Z,998.66
2023-06-30T16:32:42.919Z,998.70
2023-06-30T16:33:42.936Z,998.71
2023-06-30T16:34:43.073Z,998.71
2023-06-30T16:35:42.878Z,998.70
2023-06-30T16:36:42.916Z,998.66
2023-06-30T16:37:42.828Z,998.66
2023-06-30T16:38:42.819Z,998.67
2023-06-30T16:39:42.836Z,998.65
2023-06-30T16:40:42.798Z,998.59
2023-06-30T16:41:47.820Z,998.65
2023-06-30T16:42:42.797Z,998.63
2023-06-30T16:43:42.804Z,998.66
2023-06-30T16:44:42.758Z,998.66
2023-06-30T16:45:42.798Z,998.67
2023-06-30T16:46:42.795Z,998.70
2023-06-30T16:47:44.727Z,998.66
2023-06-30T16:48:42.715Z,998.65
2023-06-30T16:49:42.719Z,998.66
2023-06-30T16:50:42.696Z,998.71
2023-06-30T16:51:42.701Z,998.70
2023-06-30T16:52:47.685Z,998.64
2023-06-30T16:53:42.653Z,998.58
2023-06-30T16:54:42.642Z,998.62
2023-06-30T16:55:42.784Z,998.60
2023-06-30T16:56:42.771Z,998.75
2023-06-30T16:57:42.668Z,998.67
2023-06-30T16:58:42.632Z,998.66
2023-06-30T16:59:42.594Z,998.72
2023-06-30T17:00:42.701Z,998.68
2023-06-30T17:01:42.632Z,998.71
2023-06-30T17:02:42.704Z,998.68
2023-06-30T17:03:47.635Z,998.63
2023-06-30T17:04:42.655Z,998.63
2023-06-30T17:05:42.679Z,998.67
2023-06-30T17:06:42.584Z,998.72
2023-06-30T17:07:42.591Z,998.71
2023-06-30T17:08:42.588Z,998.77
2023-06-30T17:09:42.518Z,998.61
2023-06-30T17:10:44.463Z,998.67
2023-06-30T17:11:42.489Z,998.68
2023-06-30T17:12:42.469Z,998.70
2023-06-30T17:13:42.476Z,998.68
2023-06-30T17:14:47.495Z,998.71
2023-06-30T17:15:42.417Z,998.71
2023-06-30T17:16:42.469Z,998.71
2023-06-30T17:17:42.481Z,998.71
2023-06-30T17:18:42.407Z,998.67
2023-06-30T17:19:42.400Z,998.70